sensor_id;sensor_type;location;lat;lon;timestamp;P1;durP1;ratioP1;P2;durP2;ratioP2
79036;SDS011;68434;59.896;30.474;2023-04-01T00:01:57;6.03;;;3.70;;
79036;SDS011;68434;59.896;30.474;2023-04-01T00:04:25;5.53;;;3.80;;
79036;SDS011;68434;59.896;30.474;2023-04-01T00:06:52;5.43;;;4.00;;
79036;SDS011;68434;59.896;30.474;2023-04-01T00:09:20;6.72;;;3.75;;
79036;SDS011;68434;59.896;30.474;2023-04-01T00:11:47;6.65;;;3.97;;
79036;SDS011;68434;59.896;30.474;2023-04-01T00:14:15;6.70;;;3.85;;
79036;SDS011;68434;59.896;30.474;2023-04-01T00:16:44;5.45;;;3.72;;
79036;SDS011;68434;59.896;30.474;2023-04-01T00:19:12;6.70;;;4.50;;
79036;SDS011;68434;59.896;30.474;2023-04-01T00:21:40;6.68;;;4.15;;
79036;SDS011;68434;59.896;30.474;2023-04-01T00:24:08;6.13;;;4.43;;
79036;SDS011;68434;59.896;30.474;2023-04-01T00:26:35;6.43;;;3.97;;
79036;SDS011;68434;59.896;30.474;2023-04-01T00:29:03;8.13;;;4.90;;
79036;SDS011;68434;59.896;30.474;2023-04-01T00:31:31;7.45;;;3.92;;
79036;SDS011;68434;59.896;30.474;2023-04-01T00:33:59;5.75;;;3.72;;
79036;SDS011;68434;59.896;30.474;2023-04-01T00:36:27;6.22;;;3.78;;
79036;SDS011;68434;59.896;30.474;2023-04-01T00:38:55;6.20;;;4.13;;
79036;SDS011;68434;59.896;30.474;2023-04-01T00:43:51;5.75;;;3.67;;
79036;SDS011;68434;59.896;30.474;2023-04-01T00:46:19;5.95;;;4.20;;
79036;SDS011;68434;59.896;30.474;2023-04-01T00:48:48;5.68;;;4.13;;
79036;SDS011;68434;59.896;30.474;2023-04-01T00:51:21;6.88;;;4.07;;
79036;SDS011;68434;59.896;30.474;2023-04-01T00:53:53;6.13;;;4.07;;
79036;SDS011;68434;59.896;30.474;2023-04-01T00:58:54;5.60;;;4.35;;
79036;SDS011;68434;59.896;30.474;2023-04-01T01:01:26;5.82;;;4.07;;
79036;SDS011;68434;59.896;30.474;2023-04-01T01:03:57;6.88;;;5.78;;
79036;SDS011;68434;59.896;30.474;2023-04-01T01:06:29;7.60;;;4.97;;
79036;SDS011;68434;59.896;30.474;2023-04-01T01:11:59;7.72;;;5.18;;
79036;SDS011;68434;59.896;30.474;2023-04-01T01:14:35;7.47;;;5.13;;
79036;SDS011;68434;59.896;30.474;2023-04-01T01:17:12;6.97;;;5.15;;
79036;SDS011;68434;59.896;30.474;2023-04-01T01:19:49;6.03;;;4.40;;
79036;SDS011;68434;59.896;30.474;2023-04-01T01:22:29;6.18;;;3.97;;
79036;SDS011;68434;59.896;30.474;2023-04-01T01:25:08;6.65;;;4.82;;
79036;SDS011;68434;59.896;30.474;2023-04-01T01:27:44;7.55;;;4.18;;
79036;SDS011;68434;59.896;30.474;2023-04-01T01:30:26;7.65;;;4.72;;
79036;SDS011;68434;59.896;30.474;2023-04-01T01:36:16;6.63;;;4.25;;
79036;SDS011;68434;59.896;30.474;2023-04-01T01:38:47;6.90;;;4.95;;
79036;SDS011;68434;59.896;30.474;2023-04-01T01:41:16;7.05;;;4.55;;
79036;SDS011;68434;59.896;30.474;2023-04-01T01:43:46;6.70;;;4.78;;
79036;SDS011;68434;59.896;30.474;2023-04-01T01:46:18;7.30;;;4.78;;
79036;SDS011;68434;59.896;30.474;2023-04-01T01:48:49;7.15;;;5.07;;
79036;SDS011;68434;59.896;30.474;2023-04-01T01:51:20;7.05;;;4.70;;
79036;SDS011;68434;59.896;30.474;2023-04-01T01:53:50;7.03;;;5.18;;
79036;SDS011;68434;59.896;30.474;2023-04-01T01:56:19;7.13;;;4.45;;
79036;SDS011;68434;59.896;30.474;2023-04-01T01:58:53;6.20;;;4.88;;
79036;SDS011;68434;59.896;30.474;2023-04-01T02:01:25;8.30;;;5.30;;
79036;SDS011;68434;59.896;30.474;2023-04-01T02:04:02;8.00;;;5.10;;
79036;SDS011;68434;59.896;30.474;2023-04-01T02:06:32;6.72;;;4.78;;
79036;SDS011;68434;59.896;30.474;2023-04-01T02:09:05;7.70;;;5.40;;
79036;SDS011;68434;59.896;30.474;2023-04-01T02:11:37;8.23;;;5.35;;
79036;SDS011;68434;59.896;30.474;2023-04-01T02:14:10;7.72;;;5.47;;
79036;SDS011;68434;59.896;30.474;2023-04-01T02:16:40;7.50;;;5.20;;
79036;SDS011;68434;59.896;30.474;2023-04-01T02:19:13;8.52;;;5.57;;
79036;SDS011;68434;59.896;30.474;2023-04-01T02:24:17;9.20;;;6.00;;
79036;SDS011;68434;59.896;30.474;2023-04-01T02:26:48;7.43;;;4.50;;
79036;SDS011;68434;59.896;30.474;2023-04-01T02:29:19;7.43;;;4.95;;
79036;SDS011;68434;59.896;30.474;2023-04-01T02:31:51;5.97;;;4.65;;
79036;SDS011;68434;59.896;30.474;2023-04-01T02:36:48;8.45;;;5.40;;
79036;SDS011;68434;59.896;30.474;2023-04-01T02:39:19;8.63;;;4.93;;
79036;SDS011;68434;59.896;30.474;2023-04-01T02:41:46;6.85;;;4.50;;
79036;SDS011;68434;59.896;30.474;2023-04-01T02:44:14;8.35;;;5.55;;
79036;SDS011;68434;59.896;30.474;2023-04-01T02:46:43;7.90;;;6.63;;
79036;SDS011;68434;59.896;30.474;2023-04-01T02:49:10;8.50;;;6.15;;
79036;SDS011;68434;59.896;30.474;2023-04-01T02:51:38;7.43;;;4.47;;
79036;SDS011;68434;59.896;30.474;2023-04-01T02:54:07;8.73;;;5.22;;
79036;SDS011;68434;59.896;30.474;2023-04-01T02:56:38;6.68;;;4.38;;
79036;SDS011;68434;59.896;30.474;2023-04-01T02:59:05;6.53;;;4.72;;
79036;SDS011;68434;59.896;30.474;2023-04-01T03:01:33;6.72;;;4.57;;
79036;SDS011;68434;59.896;30.474;2023-04-01T03:04:01;8.55;;;6.25;;
79036;SDS011;68434;59.896;30.474;2023-04-01T03:06:28;7.57;;;5.13;;
79036;SDS011;68434;59.896;30.474;2023-04-01T03:08:56;6.50;;;4.47;;
79036;SDS011;68434;59.896;30.474;2023-04-01T03:11:25;8.90;;;6.45;;
79036;SDS011;68434;59.896;30.474;2023-04-01T03:13:52;8.18;;;5.13;;
79036;SDS011;68434;59.896;30.474;2023-04-01T03:16:19;7.03;;;4.43;;
79036;SDS011;68434;59.896;30.474;2023-04-01T03:18:49;7.65;;;5.95;;
79036;SDS011;68434;59.896;30.474;2023-04-01T03:21:18;6.88;;;5.47;;
79036;SDS011;68434;59.896;30.474;2023-04-01T03:23:47;7.47;;;4.72;;
79036;SDS011;68434;59.896;30.474;2023-04-01T03:26:16;8.05;;;5.05;;
79036;SDS011;68434;59.896;30.474;2023-04-01T03:28:45;7.95;;;5.88;;
79036;SDS011;68434;59.896;30.474;2023-04-01T03:31:12;6.65;;;4.38;;
79036;SDS011;68434;59.896;30.474;2023-04-01T03:33:48;6.47;;;4.15;;
79036;SDS011;68434;59.896;30.474;2023-04-01T03:36:15;6.70;;;5.32;;
79036;SDS011;68434;59.896;30.474;2023-04-01T03:38:43;7.57;;;4.95;;
79036;SDS011;68434;59.896;30.474;2023-04-01T03:41:16;5.43;;;3.78;;
79036;SDS011;68434;59.896;30.474;2023-04-01T03:43:47;6.40;;;3.97;;
79036;SDS011;68434;59.896;30.474;2023-04-01T03:46:16;5.82;;;4.32;;
79036;SDS011;68434;59.896;30.474;2023-04-01T03:48:44;7.80;;;4.03;;
79036;SDS011;68434;59.896;30.474;2023-04-01T03:51:12;7.07;;;4.55;;
79036;SDS011;68434;59.896;30.474;2023-04-01T03:53:40;7.93;;;4.45;;
79036;SDS011;68434;59.896;30.474;2023-04-01T03:56:08;8.60;;;4.80;;
79036;SDS011;68434;59.896;30.474;2023-04-01T03:58:36;6.45;;;4.85;;
79036;SDS011;68434;59.896;30.474;2023-04-01T04:01:17;6.68;;;3.95;;
79036;SDS011;68434;59.896;30.474;2023-04-01T04:03:47;6.28;;;4.38;;
79036;SDS011;68434;59.896;30.474;2023-04-01T04:06:16;5.80;;;4.53;;
79036;SDS011;68434;59.896;30.474;2023-04-01T04:08:45;6.55;;;4.93;;
79036;SDS011;68434;59.896;30.474;2023-04-01T04:11:13;7.47;;;5.35;;
79036;SDS011;68434;59.896;30.474;2023-04-01T04:13:46;4.68;;;3.17;;
79036;SDS011;68434;59.896;30.474;2023-04-01T04:16:16;8.48;;;4.68;;
79036;SDS011;68434;59.896;30.474;2023-04-01T04:18:53;6.95;;;4.75;;
79036;SDS011;68434;59.896;30.474;2023-04-01T04:21:23;4.63;;;3.63;;
79036;SDS011;68434;59.896;30.474;2023-04-01T04:23:57;5.75;;;3.88;;
79036;SDS011;68434;59.896;30.474;2023-04-01T04:26:48;9.93;;;4.70;;
79036;SDS011;68434;59.896;30.474;2023-04-01T04:29:16;7.97;;;4.22;;
79036;SDS011;68434;59.896;30.474;2023-04-01T04:31:47;5.65;;;4.05;;
79036;SDS011;68434;59.896;30.474;2023-04-01T04:34:15;6.68;;;4.00;;
79036;SDS011;68434;59.896;30.474;2023-04-01T04:36:44;7.35;;;4.97;;
79036;SDS011;68434;59.896;30.474;2023-04-01T04:39:13;6.72;;;4.18;;
79036;SDS011;68434;59.896;30.474;2023-04-01T04:41:42;7.05;;;4.35;;
79036;SDS011;68434;59.896;30.474;2023-04-01T04:44:09;5.10;;;3.60;;
79036;SDS011;68434;59.896;30.474;2023-04-01T04:46:37;8.73;;;4.28;;
79036;SDS011;68434;59.896;30.474;2023-04-01T04:49:13;7.63;;;4.00;;
79036;SDS011;68434;59.896;30.474;2023-04-01T04:51:40;6.18;;;4.50;;
79036;SDS011;68434;59.896;30.474;2023-04-01T04:54:08;6.40;;;3.70;;
79036;SDS011;68434;59.896;30.474;2023-04-01T04:56:56;5.32;;;3.42;;
79036;SDS011;68434;59.896;30.474;2023-04-01T04:59:26;5.97;;;4.40;;
79036;SDS011;68434;59.896;30.474;2023-04-01T05:02:02;5.50;;;3.60;;
79036;SDS011;68434;59.896;30.474;2023-04-01T05:04:31;5.68;;;3.30;;
79036;SDS011;68434;59.896;30.474;2023-04-01T05:07:01;5.15;;;3.38;;
79036;SDS011;68434;59.896;30.474;2023-04-01T05:09:29;4.68;;;3.03;;
79036;SDS011;68434;59.896;30.474;2023-04-01T05:11:58;5.57;;;4.00;;
79036;SDS011;68434;59.896;30.474;2023-04-01T05:14:31;7.30;;;3.70;;
79036;SDS011;68434;59.896;30.474;2023-04-01T05:17:09;5.53;;;3.80;;
79036;SDS011;68434;59.896;30.474;2023-04-01T05:19:38;6.15;;;4.38;;
79036;SDS011;68434;59.896;30.474;2023-04-01T05:22:06;5.45;;;3.53;;
79036;SDS011;68434;59.896;30.474;2023-04-01T05:24:35;5.47;;;3.20;;
79036;SDS011;68434;59.896;30.474;2023-04-01T05:27:03;5.65;;;4.05;;
79036;SDS011;68434;59.896;30.474;2023-04-01T05:29:31;5.38;;;4.20;;
79036;SDS011;68434;59.896;30.474;2023-04-01T05:32:04;4.53;;;2.88;;
79036;SDS011;68434;59.896;30.474;2023-04-01T05:34:32;5.90;;;3.90;;
79036;SDS011;68434;59.896;30.474;2023-04-01T05:37:01;5.47;;;3.80;;
79036;SDS011;68434;59.896;30.474;2023-04-01T05:41:56;4.72;;;3.15;;
79036;SDS011;68434;59.896;30.474;2023-04-01T05:44:23;5.00;;;3.00;;
79036;SDS011;68434;59.896;30.474;2023-04-01T05:47:14;6.75;;;4.07;;
79036;SDS011;68434;59.896;30.474;2023-04-01T05:49:41;4.55;;;3.13;;
79036;SDS011;68434;59.896;30.474;2023-04-01T05:52:10;5.68;;;4.13;;
79036;SDS011;68434;59.896;30.474;2023-04-01T05:54:38;6.18;;;3.90;;
79036;SDS011;68434;59.896;30.474;2023-04-01T05:57:06;6.28;;;3.65;;
79036;SDS011;68434;59.896;30.474;2023-04-01T05:59:33;6.18;;;4.18;;
79036;SDS011;68434;59.896;30.474;2023-04-01T06:02:02;7.18;;;4.00;;
79036;SDS011;68434;59.896;30.474;2023-04-01T06:04:31;5.97;;;3.83;;
79036;SDS011;68434;59.896;30.474;2023-04-01T06:07:05;6.13;;;3.97;;
79036;SDS011;68434;59.896;30.474;2023-04-01T06:09:40;4.90;;;3.40;;
79036;SDS011;68434;59.896;30.474;2023-04-01T06:15:13;6.88;;;4.40;;
79036;SDS011;68434;59.896;30.474;2023-04-01T06:17:51;4.88;;;3.17;;
79036;SDS011;68434;59.896;30.474;2023-04-01T06:20:31;6.07;;;4.30;;
79036;SDS011;68434;59.896;30.474;2023-04-01T06:23:11;5.72;;;3.40;;
79036;SDS011;68434;59.896;30.474;2023-04-01T06:26:00;5.32;;;3.20;;
79036;SDS011;68434;59.896;30.474;2023-04-01T06:28:45;17.17;;;3.95;;
79036;SDS011;68434;59.896;30.474;2023-04-01T06:31:37;5.38;;;3.28;;
79036;SDS011;68434;59.896;30.474;2023-04-01T06:34:17;5.50;;;3.42;;
79036;SDS011;68434;59.896;30.474;2023-04-01T06:37:03;6.43;;;3.75;;
79036;SDS011;68434;59.896;30.474;2023-04-01T06:39:53;5.68;;;3.22;;
79036;SDS011;68434;59.896;30.474;2023-04-01T06:42:43;4.57;;;3.00;;
79036;SDS011;68434;59.896;30.474;2023-04-01T06:45:47;7.30;;;4.25;;
79036;SDS011;68434;59.896;30.474;2023-04-01T06:48:45;4.97;;;3.67;;
79036;SDS011;68434;59.896;30.474;2023-04-01T06:51:41;4.35;;;3.00;;
79036;SDS011;68434;59.896;30.474;2023-04-01T06:54:34;5.10;;;2.72;;
79036;SDS011;68434;59.896;30.474;2023-04-01T06:57:27;5.50;;;3.50;;
79036;SDS011;68434;59.896;30.474;2023-04-01T07:00:03;5.93;;;3.30;;
79036;SDS011;68434;59.896;30.474;2023-04-01T07:02:41;4.85;;;3.00;;
79036;SDS011;68434;59.896;30.474;2023-04-01T07:05:12;5.50;;;3.65;;
79036;SDS011;68434;59.896;30.474;2023-04-01T07:07:42;4.63;;;3.00;;
79036;SDS011;68434;59.896;30.474;2023-04-01T07:10:14;5.40;;;3.58;;
79036;SDS011;68434;59.896;30.474;2023-04-01T07:13:09;5.88;;;4.00;;
79036;SDS011;68434;59.896;30.474;2023-04-01T07:16:05;4.93;;;3.63;;
79036;SDS011;68434;59.896;30.474;2023-04-01T07:18:41;5.03;;;3.47;;
79036;SDS011;68434;59.896;30.474;2023-04-01T07:21:17;5.18;;;3.55;;
79036;SDS011;68434;59.896;30.474;2023-04-01T07:23:52;5.78;;;3.80;;
79036;SDS011;68434;59.896;30.474;2023-04-01T07:26:46;4.50;;;3.22;;
79036;SDS011;68434;59.896;30.474;2023-04-01T07:29:21;8.13;;;3.90;;
79036;SDS011;68434;59.896;30.474;2023-04-01T07:37:43;4.78;;;3.47;;
79036;SDS011;68434;59.896;30.474;2023-04-01T07:40:21;6.80;;;3.08;;
79036;SDS011;68434;59.896;30.474;2023-04-01T07:43:01;5.95;;;3.15;;
79036;SDS011;68434;59.896;30.474;2023-04-01T07:45:50;5.13;;;3.35;;
79036;SDS011;68434;59.896;30.474;2023-04-01T07:48:30;5.30;;;3.05;;
79036;SDS011;68434;59.896;30.474;2023-04-01T07:51:06;6.03;;;3.40;;
79036;SDS011;68434;59.896;30.474;2023-04-01T07:53:42;5.90;;;4.15;;
79036;SDS011;68434;59.896;30.474;2023-04-01T07:56:16;5.50;;;3.40;;
79036;SDS011;68434;59.896;30.474;2023-04-01T07:58:52;7.35;;;3.78;;
79036;SDS011;68434;59.896;30.474;2023-04-01T08:02:02;5.53;;;4.10;;
79036;SDS011;68434;59.896;30.474;2023-04-01T08:04:42;5.85;;;3.38;;
79036;SDS011;68434;59.896;30.474;2023-04-01T08:07:21;6.40;;;4.18;;
79036;SDS011;68434;59.896;30.474;2023-04-01T08:10:17;4.57;;;3.08;;
79036;SDS011;68434;59.896;30.474;2023-04-01T08:13:14;4.88;;;3.33;;
79036;SDS011;68434;59.896;30.474;2023-04-01T08:16:09;5.70;;;4.03;;
79036;SDS011;68434;59.896;30.474;2023-04-01T08:18:53;5.28;;;3.45;;
79036;SDS011;68434;59.896;30.474;2023-04-01T08:21:28;4.43;;;3.20;;
79036;SDS011;68434;59.896;30.474;2023-04-01T08:24:05;4.78;;;3.00;;
79036;SDS011;68434;59.896;30.474;2023-04-01T08:26:46;8.15;;;3.95;;
79036;SDS011;68434;59.896;30.474;2023-04-01T08:29:26;4.72;;;3.03;;
79036;SDS011;68434;59.896;30.474;2023-04-01T08:34:37;4.95;;;3.20;;
79036;SDS011;68434;59.896;30.474;2023-04-01T08:37:17;5.38;;;3.92;;
79036;SDS011;68434;59.896;30.474;2023-04-01T08:39:54;5.03;;;3.75;;
79036;SDS011;68434;59.896;30.474;2023-04-01T08:42:31;4.65;;;3.28;;
79036;SDS011;68434;59.896;30.474;2023-04-01T08:45:21;4.65;;;3.08;;
79036;SDS011;68434;59.896;30.474;2023-04-01T08:48:13;4.43;;;3.10;;
79036;SDS011;68434;59.896;30.474;2023-04-01T08:53:55;4.50;;;3.22;;
79036;SDS011;68434;59.896;30.474;2023-04-01T08:56:53;4.95;;;3.30;;
79036;SDS011;68434;59.896;30.474;2023-04-01T08:59:32;4.85;;;3.25;;
79036;SDS011;68434;59.896;30.474;2023-04-01T09:11:58;6.28;;;3.63;;
79036;SDS011;68434;59.896;30.474;2023-04-01T09:17:47;7.68;;;3.28;;
79036;SDS011;68434;59.896;30.474;2023-04-01T09:20:32;5.22;;;3.53;;
79036;SDS011;68434;59.896;30.474;2023-04-01T09:23:28;4.00;;;3.08;;
79036;SDS011;68434;59.896;30.474;2023-04-01T09:26:11;5.72;;;3.65;;
79036;SDS011;68434;59.896;30.474;2023-04-01T09:28:59;5.03;;;3.10;;
79036;SDS011;68434;59.896;30.474;2023-04-01T09:34:59;5.43;;;3.67;;
79036;SDS011;68434;59.896;30.474;2023-04-01T09:37:35;6.13;;;4.00;;
79036;SDS011;68434;59.896;30.474;2023-04-01T09:40:21;5.07;;;3.53;;
79036;SDS011;68434;59.896;30.474;2023-04-01T09:43:21;5.45;;;2.85;;
79036;SDS011;68434;59.896;30.474;2023-04-01T09:46:14;5.30;;;3.88;;
79036;SDS011;68434;59.896;30.474;2023-04-01T09:49:04;4.05;;;2.90;;
79036;SDS011;68434;59.896;30.474;2023-04-01T09:52:05;4.30;;;2.80;;
79036;SDS011;68434;59.896;30.474;2023-04-01T09:54:52;7.95;;;3.35;;
79036;SDS011;68434;59.896;30.474;2023-04-01T10:01:01;6.38;;;3.20;;
79036;SDS011;68434;59.896;30.474;2023-04-01T10:22:55;5.68;;;3.53;;
79036;SDS011;68434;59.896;30.474;2023-04-01T10:25:40;5.78;;;3.20;;
79036;SDS011;68434;59.896;30.474;2023-04-01T10:28:50;4.72;;;3.50;;
79036;SDS011;68434;59.896;30.474;2023-04-01T10:31:42;5.05;;;3.28;;
79036;SDS011;68434;59.896;30.474;2023-04-01T10:40:46;4.18;;;2.95;;
79036;SDS011;68434;59.896;30.474;2023-04-01T10:44:11;4.68;;;3.45;;
79036;SDS011;68434;59.896;30.474;2023-04-01T10:47:26;4.30;;;3.05;;
79036;SDS011;68434;59.896;30.474;2023-04-01T10:50:33;5.05;;;3.35;;
79036;SDS011;68434;59.896;30.474;2023-04-01T10:53:39;4.90;;;3.53;;
79036;SDS011;68434;59.896;30.474;2023-04-01T10:56:30;4.72;;;2.92;;
79036;SDS011;68434;59.896;30.474;2023-04-01T11:09:26;5.28;;;3.05;;
79036;SDS011;68434;59.896;30.474;2023-04-01T11:12:30;5.28;;;3.38;;
79036;SDS011;68434;59.896;30.474;2023-04-01T11:15:31;4.97;;;3.20;;
79036;SDS011;68434;59.896;30.474;2023-04-01T11:21:41;7.88;;;4.35;;
79036;SDS011;68434;59.896;30.474;2023-04-01T11:28:24;5.43;;;3.50;;
79036;SDS011;68434;59.896;30.474;2023-04-01T11:31:29;5.75;;;4.35;;
79036;SDS011;68434;59.896;30.474;2023-04-01T11:34:07;7.18;;;3.67;;
79036;SDS011;68434;59.896;30.474;2023-04-01T11:36:49;7.70;;;4.22;;
79036;SDS011;68434;59.896;30.474;2023-04-01T11:39:30;9.80;;;4.35;;
79036;SDS011;68434;59.896;30.474;2023-04-01T11:42:09;5.97;;;3.85;;
79036;SDS011;68434;59.896;30.474;2023-04-01T11:45:09;7.55;;;3.22;;
79036;SDS011;68434;59.896;30.474;2023-04-01T11:47:51;4.40;;;2.40;;
79036;SDS011;68434;59.896;30.474;2023-04-01T11:50:33;5.60;;;3.70;;
79036;SDS011;68434;59.896;30.474;2023-04-01T11:56:07;5.63;;;3.80;;
79036;SDS011;68434;59.896;30.474;2023-04-01T12:01:40;8.52;;;3.63;;
79036;SDS011;68434;59.896;30.474;2023-04-01T12:07:14;4.35;;;3.10;;
79036;SDS011;68434;59.896;30.474;2023-04-01T12:09:52;6.53;;;3.88;;
79036;SDS011;68434;59.896;30.474;2023-04-01T12:12:31;4.95;;;3.67;;
79036;SDS011;68434;59.896;30.474;2023-04-01T12:15:12;5.95;;;3.40;;
79036;SDS011;68434;59.896;30.474;2023-04-01T12:17:48;6.43;;;4.03;;
79036;SDS011;68434;59.896;30.474;2023-04-01T12:20:29;8.18;;;4.13;;
79036;SDS011;68434;59.896;30.474;2023-04-01T12:23:09;5.93;;;3.70;;
79036;SDS011;68434;59.896;30.474;2023-04-01T12:25:57;6.95;;;3.40;;
79036;SDS011;68434;59.896;30.474;2023-04-01T12:28:39;6.28;;;4.20;;
79036;SDS011;68434;59.896;30.474;2023-04-01T12:31:20;4.90;;;3.08;;
79036;SDS011;68434;59.896;30.474;2023-04-01T12:37:09;6.00;;;4.05;;
79036;SDS011;68434;59.896;30.474;2023-04-01T12:39:52;6.15;;;4.85;;
79036;SDS011;68434;59.896;30.474;2023-04-01T12:45:28;6.30;;;3.85;;
79036;SDS011;68434;59.896;30.474;2023-04-01T12:48:09;7.47;;;3.83;;
79036;SDS011;68434;59.896;30.474;2023-04-01T12:51:05;4.22;;;3.25;;
79036;SDS011;68434;59.896;30.474;2023-04-01T13:02:11;6.05;;;3.50;;
79036;SDS011;68434;59.896;30.474;2023-04-01T13:05:10;4.30;;;2.78;;
79036;SDS011;68434;59.896;30.474;2023-04-01T13:07:52;4.78;;;2.85;;
79036;SDS011;68434;59.896;30.474;2023-04-01T13:10:31;4.75;;;3.47;;
79036;SDS011;68434;59.896;30.474;2023-04-01T13:13:18;5.18;;;3.28;;
79036;SDS011;68434;59.896;30.474;2023-04-01T13:16:05;5.65;;;3.67;;
79036;SDS011;68434;59.896;30.474;2023-04-01T13:18:39;5.60;;;3.72;;
79036;SDS011;68434;59.896;30.474;2023-04-01T13:21:21;5.32;;;3.25;;
79036;SDS011;68434;59.896;30.474;2023-04-01T13:23:59;4.97;;;3.40;;
79036;SDS011;68434;59.896;30.474;2023-04-01T13:26:36;4.95;;;3.22;;
79036;SDS011;68434;59.896;30.474;2023-04-01T13:29:09;6.13;;;3.88;;
79036;SDS011;68434;59.896;30.474;2023-04-01T13:31:47;5.25;;;3.42;;
79036;SDS011;68434;59.896;30.474;2023-04-01T13:34:39;6.57;;;3.83;;
79036;SDS011;68434;59.896;30.474;2023-04-01T13:37:23;4.85;;;3.13;;
79036;SDS011;68434;59.896;30.474;2023-04-01T13:40:11;5.03;;;3.13;;
79036;SDS011;68434;59.896;30.474;2023-04-01T13:42:51;8.00;;;4.65;;
79036;SDS011;68434;59.896;30.474;2023-04-01T13:45:24;6.57;;;4.20;;
79036;SDS011;68434;59.896;30.474;2023-04-01T13:51:15;4.53;;;2.70;;
79036;SDS011;68434;59.896;30.474;2023-04-01T13:53:59;3.42;;;2.17;;
79036;SDS011;68434;59.896;30.474;2023-04-01T13:56:37;4.30;;;2.65;;
79036;SDS011;68434;59.896;30.474;2023-04-01T14:02:17;4.80;;;2.85;;
79036;SDS011;68434;59.896;30.474;2023-04-01T14:05:04;7.07;;;2.70;;
79036;SDS011;68434;59.896;30.474;2023-04-01T14:10:28;5.00;;;3.03;;
79036;SDS011;68434;59.896;30.474;2023-04-01T14:13:04;4.70;;;3.28;;
79036;SDS011;68434;59.896;30.474;2023-04-01T14:15:56;7.18;;;3.17;;
79036;SDS011;68434;59.896;30.474;2023-04-01T14:21:40;5.10;;;3.03;;
79036;SDS011;68434;59.896;30.474;2023-04-01T14:27:30;6.57;;;2.97;;
79036;SDS011;68434;59.896;30.474;2023-04-01T14:33:15;5.57;;;2.63;;
79036;SDS011;68434;59.896;30.474;2023-04-01T14:35:59;6.70;;;3.17;;
79036;SDS011;68434;59.896;30.474;2023-04-01T14:38:50;6.43;;;3.10;;
79036;SDS011;68434;59.896;30.474;2023-04-01T14:41:30;5.07;;;2.92;;
79036;SDS011;68434;59.896;30.474;2023-04-01T14:50:05;6.75;;;2.85;;
79036;SDS011;68434;59.896;30.474;2023-04-01T14:52:37;4.53;;;2.90;;
79036;SDS011;68434;59.896;30.474;2023-04-01T14:55:23;7.38;;;3.33;;
79036;SDS011;68434;59.896;30.474;2023-04-01T14:57:58;5.15;;;2.83;;
79036;SDS011;68434;59.896;30.474;2023-04-01T15:00:47;5.32;;;2.63;;
79036;SDS011;68434;59.896;30.474;2023-04-01T15:03:22;6.07;;;3.45;;
79036;SDS011;68434;59.896;30.474;2023-04-01T15:05:59;6.22;;;3.78;;
79036;SDS011;68434;59.896;30.474;2023-04-01T15:08:53;5.18;;;2.75;;
79036;SDS011;68434;59.896;30.474;2023-04-01T15:11:33;4.55;;;2.40;;
79036;SDS011;68434;59.896;30.474;2023-04-01T15:14:18;4.82;;;2.67;;
79036;SDS011;68434;59.896;30.474;2023-04-01T15:17:01;5.18;;;3.33;;
79036;SDS011;68434;59.896;30.474;2023-04-01T15:19:42;4.70;;;2.80;;
79036;SDS011;68434;59.896;30.474;2023-04-01T15:22:28;4.93;;;2.53;;
79036;SDS011;68434;59.896;30.474;2023-04-01T15:25:22;4.18;;;2.60;;
79036;SDS011;68434;59.896;30.474;2023-04-01T15:28:01;4.50;;;2.30;;
79036;SDS011;68434;59.896;30.474;2023-04-01T15:30:37;4.80;;;2.30;;
79036;SDS011;68434;59.896;30.474;2023-04-01T15:33:15;4.72;;;2.88;;
79036;SDS011;68434;59.896;30.474;2023-04-01T15:35:56;4.05;;;2.40;;
79036;SDS011;68434;59.896;30.474;2023-04-01T15:38:31;5.72;;;3.00;;
79036;SDS011;68434;59.896;30.474;2023-04-01T15:41:06;4.13;;;2.20;;
79036;SDS011;68434;59.896;30.474;2023-04-01T15:43:42;3.40;;;1.98;;
79036;SDS011;68434;59.896;30.474;2023-04-01T15:46:30;5.00;;;3.40;;
79036;SDS011;68434;59.896;30.474;2023-04-01T15:49:13;4.38;;;2.58;;
79036;SDS011;68434;59.896;30.474;2023-04-01T15:51:54;6.22;;;3.20;;
79036;SDS011;68434;59.896;30.474;2023-04-01T15:57:36;6.90;;;2.75;;
79036;SDS011;68434;59.896;30.474;2023-04-01T16:03:20;5.72;;;3.53;;
79036;SDS011;68434;59.896;30.474;2023-04-01T16:06:03;6.32;;;3.25;;
79036;SDS011;68434;59.896;30.474;2023-04-01T16:09:02;5.35;;;2.70;;
79036;SDS011;68434;59.896;30.474;2023-04-01T16:11:46;4.65;;;2.22;;
79036;SDS011;68434;59.896;30.474;2023-04-01T16:14:26;3.83;;;1.98;;
79036;SDS011;68434;59.896;30.474;2023-04-01T16:17:08;4.18;;;2.40;;
79036;SDS011;68434;59.896;30.474;2023-04-01T16:19:49;7.85;;;3.38;;
79036;SDS011;68434;59.896;30.474;2023-04-01T16:22:22;6.90;;;3.30;;
79036;SDS011;68434;59.896;30.474;2023-04-01T16:25:07;5.75;;;3.13;;
79036;SDS011;68434;59.896;30.474;2023-04-01T16:27:49;5.22;;;3.22;;
79036;SDS011;68434;59.896;30.474;2023-04-01T16:30:32;4.20;;;2.42;;
79036;SDS011;68434;59.896;30.474;2023-04-01T16:33:05;4.47;;;2.42;;
79036;SDS011;68434;59.896;30.474;2023-04-01T16:35:42;5.55;;;2.55;;
79036;SDS011;68434;59.896;30.474;2023-04-01T16:38:16;4.93;;;2.33;;
79036;SDS011;68434;59.896;30.474;2023-04-01T16:40:53;4.68;;;2.47;;
79036;SDS011;68434;59.896;30.474;2023-04-01T16:43:38;4.85;;;2.70;;
79036;SDS011;68434;59.896;30.474;2023-04-01T16:46:15;3.92;;;2.60;;
79036;SDS011;68434;59.896;30.474;2023-04-01T16:51:54;8.43;;;4.47;;
79036;SDS011;68434;59.896;30.474;2023-04-01T16:54:36;9.27;;;4.55;;
79036;SDS011;68434;59.896;30.474;2023-04-01T16:57:16;6.88;;;3.75;;
79036;SDS011;68434;59.896;30.474;2023-04-01T16:59:47;13.73;;;6.75;;
79036;SDS011;68434;59.896;30.474;2023-04-01T17:02:25;7.05;;;3.30;;
79036;SDS011;68434;59.896;30.474;2023-04-01T17:05:00;6.85;;;3.10;;
79036;SDS011;68434;59.896;30.474;2023-04-01T17:07:35;4.88;;;2.30;;
79036;SDS011;68434;59.896;30.474;2023-04-01T17:13:09;4.65;;;2.50;;
79036;SDS011;68434;59.896;30.474;2023-04-01T17:15:51;4.60;;;2.42;;
79036;SDS011;68434;59.896;30.474;2023-04-01T17:18:30;3.65;;;2.38;;
79036;SDS011;68434;59.896;30.474;2023-04-01T17:21:11;5.00;;;2.67;;
79036;SDS011;68434;59.896;30.474;2023-04-01T17:23:45;4.88;;;2.53;;
79036;SDS011;68434;59.896;30.474;2023-04-01T17:26:24;5.07;;;2.60;;
79036;SDS011;68434;59.896;30.474;2023-04-01T17:29:01;4.72;;;2.35;;
79036;SDS011;68434;59.896;30.474;2023-04-01T17:31:42;5.57;;;2.42;;
79036;SDS011;68434;59.896;30.474;2023-04-01T17:34:22;8.88;;;4.40;;
79036;SDS011;68434;59.896;30.474;2023-04-01T17:37:05;12.20;;;5.82;;
79036;SDS011;68434;59.896;30.474;2023-04-01T17:39:51;5.78;;;3.60;;
79036;SDS011;68434;59.896;30.474;2023-04-01T17:42:33;8.32;;;3.80;;
79036;SDS011;68434;59.896;30.474;2023-04-01T17:45:10;10.77;;;4.40;;
79036;SDS011;68434;59.896;30.474;2023-04-01T17:47:58;5.65;;;3.10;;
79036;SDS011;68434;59.896;30.474;2023-04-01T17:50:43;6.15;;;3.08;;
79036;SDS011;68434;59.896;30.474;2023-04-01T17:53:22;9.68;;;4.10;;
79036;SDS011;68434;59.896;30.474;2023-04-01T17:56:02;5.10;;;3.10;;
79036;SDS011;68434;59.896;30.474;2023-04-01T17:58:39;7.07;;;3.20;;
79036;SDS011;68434;59.896;30.474;2023-04-01T18:01:17;5.13;;;2.67;;
79036;SDS011;68434;59.896;30.474;2023-04-01T18:03:55;5.25;;;3.30;;
79036;SDS011;68434;59.896;30.474;2023-04-01T18:09:41;5.13;;;3.22;;
79036;SDS011;68434;59.896;30.474;2023-04-01T18:12:23;5.28;;;3.30;;
79036;SDS011;68434;59.896;30.474;2023-04-01T18:15:12;5.70;;;3.92;;
79036;SDS011;68434;59.896;30.474;2023-04-01T18:17:55;6.22;;;2.95;;